createdAt,value
2023-01-17T00:02:07.035Z,5.50
2023-01-17T00:04:55.992Z,5.40
2023-01-17T00:07:48.296Z,5.40
2023-01-17T00:10:22.884Z,5.50
2023-01-17T00:13:01.251Z,5.30
2023-01-17T00:15:37.430Z,5.40
2023-01-17T00:18:11.229Z,5.50
2023-01-17T00:21:00.758Z,5.40
2023-01-17T00:23:51.413Z,5.50
2023-01-17T00:26:26.361Z,5.40
2023-01-17T00:28:57.428Z,5.50
2023-01-17T00:31:29.137Z,5.40
2023-01-17T00:34:00.644Z,5.50
2023-01-17T00:36:32.508Z,5.50
2023-01-17T00:39:05.599Z,5.60
2023-01-17T00:41:37.435Z,5.50
2023-01-17T00:44:28.186Z,5.60
2023-01-17T00:47:17.158Z,5.70
2023-01-17T00:50:07.039Z,5.60
2023-01-17T00:52:56.241Z,5.60
2023-01-17T00:55:47.736Z,5.60
2023-01-17T00:58:39.182Z,5.80
2023-01-17T01:01:29.156Z,5.90
2023-01-17T01:04:19.283Z,5.90
2023-01-17T01:07:09.478Z,5.90
2023-01-17T01:09:58.697Z,5.80
2023-01-17T01:12:49.787Z,5.80
2023-01-17T01:15:38.992Z,5.80
2023-01-17T01:18:29.422Z,5.80
2023-01-17T01:21:24.662Z,5.90
2023-01-17T01:24:14.111Z,6.00
2023-01-17T01:27:03.968Z,6.10
2023-01-17T01:29:55.560Z,6.30
2023-01-17T01:32:45.117Z,6.30
2023-01-17T01:35:18.491Z,6.60
2023-01-17T01:37:51.697Z,6.70
2023-01-17T01:40:25.546Z,6.70
2023-01-17T01:43:00.822Z,6.50
2023-01-17T01:45:36.380Z,6.40
2023-01-17T01:48:18.189Z,6.50
2023-01-17T01:50:54.095Z,6.60
2023-01-17T01:53:30.006Z,7.00
2023-01-17T01:56:04.234Z,7.20
2023-01-17T01:58:40.139Z,7.00
2023-01-17T02:01:20.285Z,7.00
2023-01-17T02:03:57.951Z,6.70
2023-01-17T02:06:39.905Z,6.80
2023-01-17T02:09:16.316Z,7.00
2023-01-17T02:11:51.337Z,6.90
2023-01-17T02:14:26.771Z,7.00
2023-01-17T02:17:13.431Z,7.10
2023-01-17T02:20:18.080Z,7.30
2023-01-17T02:23:31.859Z,7.10
2023-01-17T02:26:39.665Z,6.90
2023-01-17T02:29:45.848Z,7.30
2023-01-17T02:32:29.864Z,8.20
2023-01-17T02:35:07.409Z,9.00
2023-01-17T02:37:49.569Z,8.80
2023-01-17T02:40:28.304Z,8.60
2023-01-17T02:43:07.112Z,8.80
2023-01-17T02:45:40.848Z,8.60
2023-01-17T02:48:18.442Z,8.70
2023-01-17T02:51:07.333Z,9.60
2023-01-17T02:53:52.023Z,10.30
2023-01-17T02:56:38.637Z,10.50
2023-01-17T02:59:20.495Z,10.90
2023-01-17T03:02:06.108Z,11.90
2023-01-17T03:04:45.977Z,11.30
2023-01-17T03:07:22.888Z,11.80
2023-01-17T03:10:01.052Z,11.70
2023-01-17T03:12:36.091Z,11.60
2023-01-17T03:15:14.626Z,11.30
2023-01-17T03:17:52.084Z,11.80
2023-01-17T03:20:27.948Z,11.90
2023-01-17T03:23:01.416Z,12.10
2023-01-17T03:25:35.112Z,11.60
2023-01-17T03:28:10.136Z,11.20
2023-01-17T03:30:44.023Z,10.90
2023-01-17T03:33:19.785Z,11.10
2023-01-17T03:35:55.864Z,11.30
2023-01-17T03:38:29.489Z,11.40
2023-01-17T03:41:03.610Z,11.30
2023-01-17T03:43:37.095Z,10.90
2023-01-17T03:46:21.669Z,10.90
2023-01-17T03:48:55.777Z,11.20
2023-01-17T03:51:31.652Z,11.10
2023-01-17T03:54:05.116Z,11.30
2023-01-17T03:56:38.540Z,11.10
2023-01-17T03:59:13.659Z,11.10
2023-01-17T04:01:49.391Z,10.50
2023-01-17T04:04:25.305Z,10.60
2023-01-17T04:07:03.959Z,10.80
2023-01-17T04:09:39.879Z,10.10
2023-01-17T04:12:16.189Z,10.30
2023-01-17T04:14:52.536Z,10.70
2023-01-17T04:17:28.597Z,10.60
2023-01-17T04:20:04.922Z,10.80
2023-01-17T04:22:42.856Z,10.40
2023-01-17T04:25:18.381Z,10.10
2023-01-17T04:27:54.031Z,10.20
2023-01-17T04:30:29.718Z,10.00
2023-01-17T04:33:05.652Z,10.20
2023-01-17T04:35:42.035Z,10.20
2023-01-17T04:38:19.684Z,9.80
2023-01-17T04:40:55.706Z,9.70
2023-01-17T04:43:31.402Z,9.90
2023-01-17T04:46:11.567Z,9.70
2023-01-17T04:48:47.678Z,10.00
2023-01-17T04:51:23.567Z,10.10
2023-01-17T04:54:00.958Z,9.60
2023-01-17T04:56:36.816Z,9.30
2023-01-17T04:59:13.801Z,9.40
2023-01-17T05:01:49.873Z,9.70
2023-01-17T05:04:23.658Z,9.50
2023-01-17T05:06:57.001Z,9.30
2023-01-17T05:09:37.185Z,9.70
2023-01-17T05:12:14.763Z,9.60
2023-01-17T05:14:48.978Z,9.50
2023-01-17T05:17:22.379Z,9.60
2023-01-17T05:19:55.834Z,9.60
2023-01-17T05:22:35.213Z,9.60
2023-01-17T05:25:11.527Z,9.70
2023-01-17T05:27:45.098Z,9.70
2023-01-17T05:30:18.532Z,9.60
2023-01-17T05:32:55.057Z,9.60
2023-01-17T05:35:29.742Z,9.70
2023-01-17T05:38:02.701Z,9.80
2023-01-17T05:40:46.961Z,9.80
2023-01-17T05:43:22.137Z,10.00
2023-01-17T05:45:56.051Z,9.80
2023-01-17T05:48:29.828Z,9.80
2023-01-17T05:51:03.314Z,9.50
2023-01-17T05:53:36.910Z,9.90
2023-01-17T05:56:12.017Z,10.10
2023-01-17T05:58:44.915Z,9.90
2023-01-17T06:01:19.186Z,9.80
2023-01-17T06:03:52.283Z,9.80
2023-01-17T06:06:26.158Z,9.90
2023-01-17T06:08:59.462Z,9.60
2023-01-17T06:11:35.309Z,9.70
2023-01-17T06:14:09.705Z,9.70
2023-01-17T06:16:42.600Z,10.00
2023-01-17T06:19:15.832Z,10.00
2023-01-17T06:21:52.577Z,9.90
2023-01-17T06:24:25.626Z,10.00
2023-01-17T06:27:00.478Z,10.00
2023-01-17T06:29:33.859Z,10.10
2023-01-17T06:32:07.611Z,10.10
2023-01-17T06:34:43.084Z,10.30
2023-01-17T06:37:18.324Z,10.10
2023-01-17T06:39:52.569Z,10.10
2023-01-17T06:42:29.139Z,9.90
2023-01-17T06:45:02.851Z,9.90
2023-01-17T06:47:36.648Z,10.00
2023-01-17T06:50:15.740Z,10.40
2023-01-17T06:53:03.724Z,10.20
2023-01-17T06:55:38.703Z,9.90
2023-01-17T06:58:14.343Z,10.20
2023-01-17T07:00:48.342Z,10.00
2023-01-17T07:03:25.003Z,9.90
2023-01-17T07:05:59.758Z,9.50
2023-01-17T07:08:33.802Z,9.50
2023-01-17T07:11:09.075Z,9.60
2023-01-17T07:13:45.438Z,9.60
2023-01-17T07:16:18.544Z,9.50
2023-01-17T07:18:53.218Z,9.40
2023-01-17T07:21:26.617Z,9.40
2023-01-17T07:23:59.521Z,9.30
2023-01-17T07:26:33.145Z,9.10
2023-01-17T07:29:10.232Z,8.90
2023-01-17T07:31:45.232Z,9.00
2023-01-17T07:34:19.154Z,9.10
2023-01-17T07:36:53.115Z,9.00
2023-01-17T07:39:26.581Z,9.10
2023-01-17T07:41:59.903Z,8.80
2023-01-17T07:44:34.967Z,8.80
2023-01-17T07:47:08.433Z,8.20
2023-01-17T07:49:42.183Z,8.20
2023-01-17T07:52:17.418Z,8.20
2023-01-17T07:54:51.456Z,8.20
2023-01-17T07:57:24.714Z,8.20
2023-01-17T08:00:00.457Z,8.10
2023-01-17T08:02:34.127Z,8.20
2023-01-17T08:05:08.072Z,8.20
2023-01-17T08:07:41.761Z,8.20
2023-01-17T08:10:19.445Z,8.10
2023-01-17T08:12:53.700Z,8.00
2023-01-17T08:15:29.581Z,8.00
2023-01-17T08:18:03.378Z,7.80
2023-01-17T08:20:36.751Z,7.80
2023-01-17T08:23:10.117Z,7.90
2023-01-17T08:25:43.713Z,7.80
2023-01-17T08:28:17.445Z,7.80
2023-01-17T08:30:53.707Z,7.70
2023-01-17T08:33:27.196Z,7.90
2023-01-17T08:36:00.585Z,8.00
2023-01-17T08:38:34.105Z,8.00
2023-01-17T08:41:08.525Z,8.00
2023-01-17T08:43:42.347Z,7.80
2023-01-17T08:46:17.520Z,7.90
2023-01-17T08:48:57.124Z,7.70
2023-01-17T08:51:30.933Z,7.90
2023-01-17T08:54:04.340Z,7.70
2023-01-17T08:56:37.420Z,7.70
2023-01-17T08:59:10.613Z,7.90
2023-01-17T09:01:47.304Z,7.90
2023-01-17T09:04:20.816Z,7.90
2023-01-17T09:06:53.755Z,7.90
2023-01-17T09:09:30.588Z,7.80
2023-01-17T09:12:04.611Z,7.60
2023-01-17T09:14:38.995Z,7.50
2023-01-17T09:17:14.638Z,7.70
2023-01-17T09:19:49.924Z,7.60
2023-01-17T09:22:23.693Z,7.60
2023-01-17T09:24:57.147Z,7.70
2023-01-17T09:27:30.576Z,7.70
2023-01-17T09:30:03.756Z,7.70
2023-01-17T09:32:38.542Z,7.70
2023-01-17T09:35:12.290Z,7.60
2023-01-17T09:37:46.051Z,7.60
2023-01-17T09:40:23.133Z,7.50
2023-01-17T09:43:02.996Z,7.60
2023-01-17T09:45:37.674Z,7.70
2023-01-17T09:48:20.104Z,7.70
2023-01-17T09:51:01.810Z,7.70
2023-01-17T09:53:44.587Z,7.50
2023-01-17T09:56:33.911Z,7.60
2023-01-17T09:59:32.748Z,7.60
2023-01-17T10:02:27.750Z,7.50
2023-01-17T10:05:31.909Z,7.50
2023-01-17T10:08:20.324Z,7.50
2023-01-17T10:11:05.670Z,7.60
2023-01-17T10:13:48.238Z,7.50
2023-01-17T10:16:36.340Z,7.50
2023-01-17T10:19:19.804Z,7.50
2023-01-17T10:22:14.821Z,7.50
2023-01-17T10:25:23.770Z,7.40
2023-01-17T10:28:02.566Z,7.40
2023-01-17T10:30:43.122Z,7.50
2023-01-17T10:33:20.552Z,7.50
2023-01-17T10:36:01.695Z,7.30
2023-01-17T10:38:38.992Z,7.40
2023-01-17T10:41:18.895Z,7.40
2023-01-17T10:44:03.374Z,7.40
2023-01-17T10:46:43.047Z,7.40
2023-01-17T10:49:21.764Z,7.30
2023-01-17T10:52:06.151Z,7.50
2023-01-17T10:55:12.684Z,7.50
2023-01-17T10:57:47.573Z,7.40
2023-01-17T11:00:41.754Z,7.40
2023-01-17T11:03:16.729Z,7.40
2023-01-17T11:05:49.965Z,7.50
2023-01-17T11:08:23.795Z,7.40
2023-01-17T11:11:06.516Z,7.50
2023-01-17T11:13:42.598Z,7.50
2023-01-17T11:16:27.425Z,7.60
2023-01-17T11:19:19.029Z,7.40
2023-01-17T11:21:59.034Z,7.40
2023-01-17T11:24:39.255Z,7.60
2023-01-17T11:27:29.640Z,7.60
2023-01-17T11:30:11.714Z,7.60
2023-01-17T11:32:58.932Z,7.50
2023-01-17T11:35:36.360Z,7.60
2023-01-17T11:38:16.318Z,7.60
2023-01-17T11:40:52.310Z,7.50
2023-01-17T11:43:31.418Z,7.40
2023-01-17T11:46:19.352Z,7.40
2023-01-17T11:48:56.457Z,7.40
2023-01-17T11:51:36.293Z,7.40
2023-01-17T11:54:19.731Z,7.40
2023-01-17T11:56:54.035Z,7.40
2023-01-17T11:59:36.226Z,7.40
2023-01-17T12:02:48.144Z,7.40
2023-01-17T12:05:35.623Z,7.40
2023-01-17T12:08:18.977Z,7.40
2023-01-17T12:11:01.394Z,7.40
2023-01-17T12:14:02.600Z,7.40
2023-01-17T12:16:55.358Z,7.40
2023-01-17T12:19:42.559Z,7.40
2023-01-17T12:22:36.655Z,7.30
2023-01-17T12:25:31.852Z,7.30
2023-01-17T12:28:32.400Z,7.40
2023-01-17T12:31:18.289Z,7.40
2023-01-17T12:34:01.373Z,7.20
2023-01-17T12:36:49.943Z,7.30
2023-01-17T12:39:29.128Z,7.30
2023-01-17T12:42:07.904Z,7.40
2023-01-17T12:44:57.701Z,7.30
2023-01-17T12:47:33.706Z,7.30
2023-01-17T12:50:20.705Z,7.20
2023-01-17T12:53:03.900Z,7.30
2023-01-17T12:55:51.667Z,7.30
2023-01-17T12:58:28.313Z,7.30
2023-01-17T13:01:11.687Z,7.20
2023-01-17T13:03:58.137Z,7.30
2023-01-17T13:06:49.596Z,7.40
2023-01-17T13:09:28.129Z,7.40
2023-01-17T13:12:07.756Z,7.40
2023-01-17T13:14:42.729Z,7.20
2023-01-17T13:17:31.497Z,7.10
2023-01-17T13:20:15.229Z,7.10
2023-01-17T13:22:55.288Z,7.00
2023-01-17T13:25:42.418Z,6.90
2023-01-17T13:28:39.572Z,6.90
2023-01-17T13:31:44.663Z,6.90
2023-01-17T13:34:57.282Z,6.90
2023-01-17T13:38:09.031Z,6.90
2023-01-17T13:40:55.763Z,6.90
2023-01-17T13:43:33.532Z,6.90
2023-01-17T13:46:09.862Z,6.90
2023-01-17T13:48:48.651Z,7.00
2023-01-17T13:51:29.474Z,6.90
2023-01-17T13:54:05.308Z,6.90
2023-01-17T13:56:43.206Z,6.90
2023-01-17T13:59:45.830Z,6.90
2023-01-17T14:02:43.896Z,6.90
2023-01-17T14:05:23.456Z,7.00
2023-01-17T14:08:04.217Z,7.00
2023-01-17T14:10:43.921Z,6.90
2023-01-17T14:13:38.198Z,6.90
2023-01-17T14:16:30.204Z,7.00
2023-01-17T14:19:11.071Z,7.00
2023-01-17T14:21:47.150Z,6.90
2023-01-17T14:24:26.006Z,7.00
2023-01-17T14:27:19.245Z,6.80
2023-01-17T14:30:03.861Z,6.70
2023-01-17T14:32:41.807Z,6.70
2023-01-17T14:35:27.955Z,6.80
2023-01-17T14:38:07.590Z,6.80
2023-01-17T14:40:45.297Z,6.80
2023-01-17T14:43:23.822Z,6.80
2023-01-17T14:46:09.136Z,6.70
2023-01-17T14:48:47.814Z,6.70
2023-01-17T14:51:27.440Z,6.60
2023-01-17T14:54:04.124Z,6.70
2023-01-17T14:56:39.564Z,6.80
2023-01-17T14:59:26.831Z,6.80
2023-01-17T15:02:08.844Z,6.80
2023-01-17T15:04:44.373Z,6.70
2023-01-17T15:07:21.790Z,6.80
2023-01-17T15:10:00.950Z,6.90
2023-01-17T15:12:36.389Z,6.70
2023-01-17T15:15:26.550Z,6.80
2023-01-17T15:18:31.301Z,6.90
2023-01-17T15:21:12.516Z,6.90
2023-01-17T15:23:51.922Z,6.90
2023-01-17T15:26:30.347Z,6.80
2023-01-17T15:29:09.905Z,6.80
2023-01-17T15:31:48.433Z,6.90
2023-01-17T15:34:31.238Z,6.80
2023-01-17T15:37:10.550Z,6.70
2023-01-17T15:39:47.546Z,6.70
2023-01-17T15:42:27.096Z,6.80
2023-01-17T15:45:04.702Z,6.70
2023-01-17T15:47:42.256Z,6.80
2023-01-17T15:50:37.879Z,6.70
2023-01-17T15:53:34.155Z,6.80
2023-01-17T15:56:26.535Z,6.70
2023-01-17T15:59:33.664Z,6.70
2023-01-17T16:02:08.380Z,6.90
2023-01-17T16:04:45.931Z,6.90
2023-01-17T16:07:32.459Z,6.90
2023-01-17T16:10:19.364Z,7.00
2023-01-17T16:12:55.319Z,6.80
2023-01-17T16:15:31.040Z,6.90
2023-01-17T16:18:09.743Z,6.70
2023-01-17T16:20:47.103Z,6.90
2023-01-17T16:23:24.714Z,7.00
2023-01-17T16:25:59.526Z,6.90
2023-01-17T16:28:35.831Z,6.90
2023-01-17T16:31:10.845Z,7.00
2023-01-17T16:33:45.344Z,7.00
2023-01-17T16:36:20.873Z,7.00
2023-01-17T16:38:57.611Z,7.00
2023-01-17T16:41:31.579Z,6.80
2023-01-17T16:44:06.739Z,6.80
2023-01-17T16:46:42.875Z,6.70
2023-01-17T16:49:16.469Z,6.90
2023-01-17T16:51:51.303Z,6.90
2023-01-17T16:54:26.540Z,7.00
2023-01-17T16:57:01.056Z,7.00
2023-01-17T16:59:46.107Z,7.00
2023-01-17T17:02:23.320Z,7.00
2023-01-17T17:04:56.256Z,6.90
2023-01-17T17:07:29.262Z,7.00
2023-01-17T17:10:04.026Z,7.00
2023-01-17T17:12:37.829Z,7.00
2023-01-17T17:15:12.278Z,6.90
2023-01-17T17:17:46.686Z,6.90
2023-01-17T17:20:21.226Z,6.90
2023-01-17T17:22:55.691Z,6.80
2023-01-17T17:25:40.935Z,6.90
2023-01-17T17:28:15.305Z,6.60
2023-01-17T17:30:48.647Z,6.60
2023-01-17T17:33:22.003Z,6.60
2023-01-17T17:35:55.525Z,6.60
2023-01-17T17:38:30.067Z,6.60
2023-01-17T17:41:13.076Z,6.80
2023-01-17T17:43:46.682Z,6.80
2023-01-17T17:46:20.529Z,6.70
2023-01-17T17:48:53.785Z,6.80
2023-01-17T17:51:31.147Z,6.70
2023-01-17T17:54:06.657Z,6.80
2023-01-17T17:56:43.848Z,6.70
2023-01-17T17:59:19.904Z,6.50
2023-01-17T18:01:54.026Z,6.60
2023-01-17T18:04:27.306Z,6.60
2023-01-17T18:07:02.828Z,6.70
2023-01-17T18:09:36.039Z,6.60
2023-01-17T18:12:11.860Z,6.70
2023-01-17T18:14:46.500Z,6.70
2023-01-17T18:17:21.493Z,6.60
2023-01-17T18:19:54.349Z,6.60
2023-01-17T18:22:27.847Z,6.60
2023-01-17T18:25:01.551Z,6.60
2023-01-17T18:27:36.928Z,6.60
2023-01-17T18:30:11.168Z,6.60
2023-01-17T18:32:44.325Z,6.70
2023-01-17T18:35:17.289Z,6.60
2023-01-17T18:37:50.594Z,6.60
2023-01-17T18:40:24.152Z,6.50
2023-01-17T18:42:59.360Z,6.60
2023-01-17T18:45:33.919Z,6.60
2023-01-17T18:48:07.562Z,6.70
2023-01-17T18:50:40.759Z,6.60
2023-01-17T18:53:13.766Z,6.70
2023-01-17T18:55:46.950Z,6.50
2023-01-17T18:58:22.267Z,6.60
2023-01-17T19:00:56.514Z,6.60
2023-01-17T19:03:33.036Z,6.50
2023-01-17T19:06:07.263Z,6.30
2023-01-17T19:08:41.661Z,6.50
2023-01-17T19:11:15.925Z,6.60
2023-01-17T19:13:51.997Z,6.70
2023-01-17T19:16:29.168Z,6.50
2023-01-17T19:19:05.316Z,6.50
2023-01-17T19:21:39.088Z,6.40
2023-01-17T19:24:14.229Z,6.50
2023-01-17T19:26:49.190Z,6.50
2023-01-17T19:29:24.451Z,6.40
2023-01-17T19:31:59.004Z,6.30
2023-01-17T19:34:32.357Z,6.40
2023-01-17T19:37:07.503Z,6.40
2023-01-17T19:39:40.943Z,6.40
2023-01-17T19:42:16.759Z,6.40
2023-01-17T19:44:51.723Z,6.40
2023-01-17T19:47:28.019Z,6.30
2023-01-17T19:50:01.269Z,6.30
2023-01-17T19:52:35.016Z,6.20
2023-01-17T19:55:11.287Z,6.20
2023-01-17T19:57:45.402Z,6.40
2023-01-17T20:00:29.382Z,6.30
2023-01-17T20:03:03.774Z,6.30
2023-01-17T20:05:37.751Z,6.30
2023-01-17T20:08:32.091Z,6.30
2023-01-17T20:11:09.309Z,6.40
2023-01-17T20:13:42.477Z,6.40
2023-01-17T20:16:18.813Z,6.30
2023-01-17T20:18:52.140Z,6.20
2023-01-17T20:21:26.830Z,6.20
2023-01-17T20:24:01.936Z,6.20
2023-01-17T20:26:39.801Z,6.20
2023-01-17T20:29:16.188Z,6.10
2023-01-17T20:31:54.378Z,6.10
2023-01-17T20:34:28.207Z,6.00
2023-01-17T20:37:01.597Z,6.00
2023-01-17T20:39:34.712Z,6.10
2023-01-17T20:42:08.066Z,6.10
2023-01-17T20:44:41.802Z,6.00
2023-01-17T20:47:17.142Z,6.00
2023-01-17T20:49:50.552Z,5.90
2023-01-17T20:52:23.976Z,5.90
2023-01-17T20:54:58.113Z,5.90
2023-01-17T20:57:32.592Z,5.90
2023-01-17T21:00:06.557Z,5.80
2023-01-17T21:02:41.735Z,5.70
2023-01-17T21:05:15.256Z,5.70
2023-01-17T21:07:50.985Z,5.80
2023-01-17T21:10:24.270Z,5.80
2023-01-17T21:12:57.438Z,5.70
2023-01-17T21:15:30.725Z,5.70
2023-01-17T21:18:06.942Z,5.80
2023-01-17T21:20:39.979Z,5.70
2023-01-17T21:23:19.426Z,5.70
2023-01-17T21:26:05.214Z,5.70
2023-01-17T21:28:40.102Z,5.70
2023-01-17T21:31:21.613Z,5.70
2023-01-17T21:33:58.373Z,5.60
2023-01-17T21:36:34.151Z,5.70
2023-01-17T21:39:09.419Z,5.70
2023-01-17T21:41:44.994Z,5.70
2023-01-17T21:44:20.425Z,5.70
2023-01-17T21:46:56.476Z,5.60
2023-01-17T21:49:32.219Z,5.60
2023-01-17T21:52:23.710Z,5.40
2023-01-17T21:55:14.741Z,5.50
2023-01-17T21:58:05.418Z,5.40
2023-01-17T22:00:40.243Z,5.40
2023-01-17T22:03:13.273Z,5.60
2023-01-17T22:06:08.267Z,5.50
2023-01-17T22:08:42.283Z,5.40
2023-01-17T22:11:17.582Z,5.40
2023-01-17T22:13:52.069Z,5.40
2023-01-17T22:16:27.271Z,5.40
2023-01-17T22:19:01.593Z,5.40
2023-01-17T22:21:36.925Z,5.50
2023-01-17T22:24:12.787Z,5.30
2023-01-17T22:26:46.091Z,5.40
2023-01-17T22:29:20.078Z,5.40
2023-01-17T22:31:53.059Z,5.40
2023-01-17T22:34:27.276Z,5.30
2023-01-17T22:37:03.984Z,5.30
2023-01-17T22:39:37.726Z,5.30
2023-01-17T22:42:11.587Z,5.30
2023-01-17T22:44:44.708Z,5.40
2023-01-17T22:47:17.942Z,5.30
2023-01-17T22:49:50.911Z,5.30
2023-01-17T22:52:25.700Z,5.20
2023-01-17T22:54:59.506Z,5.20
2023-01-17T22:57:33.294Z,5.10
2023-01-17T23:00:15.541Z,5.20
2023-01-17T23:02:49.072Z,5.20
2023-01-17T23:05:22.122Z,5.20
2023-01-17T23:07:57.200Z,5.20
2023-01-17T23:10:52.754Z,5.20
2023-01-17T23:13:26.554Z,5.30
2023-01-17T23:16:16.520Z,5.30
2023-01-17T23:19:06.203Z,5.40
2023-01-17T23:21:56.008Z,5.40
2023-01-17T23:24:31.652Z,5.40
2023-01-17T23:27:21.170Z,5.30
2023-01-17T23:29:55.233Z,5.30
2023-01-17T23:32:28.196Z,5.30
2023-01-17T23:35:01.167Z,5.20
2023-01-17T23:37:50.583Z,5.20
2023-01-17T23:40:27.430Z,5.20
2023-01-17T23:43:17.095Z,5.20
2023-01-17T23:45:50.854Z,5.30
2023-01-17T23:48:26.201Z,5.30
2023-01-17T23:51:03.580Z,5.20
2023-01-17T23:53:36.742Z,5.30
2023-01-17T23:56:19.935Z,5.30
2023-01-17T23:58:54.145Z,5.30
